Time;durP1;ratioP1;P1;durP2;ratioP2;P2;SDS_P1;SDS_P2;PMS_P1;PMS_P2;Temp;Humidity;BMP_temperature;BMP_pressure;BME280_temperature;BME280_humidity;BME280_pressure;Samples;Min_cycle;Max_cycle;Signal;HPM_P1;HPM_P2
2022/09/16 00:00:21;;;;;;;6.32;2.30;;;17.30;66.30;;;;;;5009107;28;20033;-77
2022/09/16 00:02:47;;;;;;;4.90;1.50;;;17.30;66.80;;;;;;5017666;28;20083;-76
2022/09/16 00:05:13;;;;;;;2.85;1.60;;;17.20;66.90;;;;;;5038442;28;20411;-76
2022/09/16 00:07:38;;;;;;;5.68;1.40;;;17.20;67.10;;;;;;5014932;28;20030;-77
2022/09/16 00:10:05;;;;;;;3.40;1.90;;;17.20;66.90;;;;;;4998870;28;20108;-76
2022/09/16 00:12:31;;;;;;;6.60;1.85;;;17.10;67.00;;;;;;4999163;28;20434;-77
2022/09/16 00:14:57;;;;;;;7.38;2.05;;;17.20;66.70;;;;;;4998554;28;20022;-77
2022/09/16 00:17:23;;;;;;;5.15;1.83;;;17.20;66.90;;;;;;4998658;28;20030;-77
2022/09/16 00:19:49;;;;;;;2.20;1.45;;;17.20;67.50;;;;;;4997500;28;20125;-77
2022/09/16 00:22:18;;;;;;;4.65;1.70;;;17.20;67.40;;;;;;4997704;28;20469;-76
2022/09/16 00:24:43;;;;;;;3.75;1.67;;;17.10;67.60;;;;;;5014384;28;20041;-77
2022/09/16 00:27:09;;;;;;;3.70;1.60;;;17.10;67.50;;;;;;4998766;28;20030;-77
2022/09/16 00:29:35;;;;;;;4.68;1.90;;;17.10;67.40;;;;;;5013252;28;20041;-77
2022/09/16 00:32:01;;;;;;;5.57;2.13;;;17.00;67.90;;;;;;4998567;28;20108;-77
2022/09/16 00:34:27;;;;;;;3.80;2.05;;;17.00;67.90;;;;;;5020155;28;20018;-77
2022/09/16 00:36:52;;;;;;;3.33;1.60;;;17.00;67.90;;;;;;5000151;28;20033;-77
2022/09/16 00:39:18;;;;;;;4.22;1.60;;;16.90;68.30;;;;;;4998736;28;20065;-76
2022/09/16 00:41:44;;;;;;;3.42;1.45;;;16.90;68.30;;;;;;5013604;28;20037;-77
2022/09/16 00:45:06;;;;;;;;;;;;;;;;;;;;;
2022/09/16 00:47:34;;;;;;;6.03;1.58;;;16.90;68.40;;;;;;4998912;28;20106;-77
2022/09/16 00:50:19;;;;;;;3.60;1.85;;;16.90;68.10;;;;;;5012736;28;20081;-77
2022/09/16 00:52:46;;;;;;;3.10;1.67;;;16.80;67.60;;;;;;4998049;28;20494;-76
2022/09/16 00:55:17;;;;;;;6.10;1.77;;;16.80;68.20;;;;;;4998454;28;20030;-76
2022/09/16 00:57:45;;;;;;;3.08;1.70;;;16.80;68.70;;;;;;5013866;28;20398;-77
2022/09/16 01:00:12;;;;;;;4.40;2.20;;;16.80;68.30;;;;;;4996809;28;20030;-76
2022/09/16 01:02:41;;;;;;;6.20;1.63;;;16.70;67.90;;;;;;4995389;28;20030;-77
2022/09/16 01:05:14;;;;;;;3.03;1.58;;;16.70;68.60;;;;;;4997848;28;20038;-77
2022/09/16 01:07:51;;;;;;;3.92;1.80;;;16.60;68.60;;;;;;4997468;28;20484;-76
2022/09/16 01:10:20;;;;;;;4.60;1.55;;;16.60;68.40;;;;;;5017127;28;20041;-77
2022/09/16 01:12:50;;;;;;;3.83;1.77;;;16.60;68.90;;;;;;5017475;28;20014;-77
2022/09/16 01:15:16;;;;;;;3.25;1.50;;;16.60;68.80;;;;;;5018329;28;20030;-77
2022/09/16 01:17:42;;;;;;;3.30;1.42;;;16.60;69.10;;;;;;5012820;28;20334;-77
2022/09/16 01:20:39;;;;;;;6.25;1.60;;;16.50;69.50;;;;;;5013004;28;20038;-77
2022/09/16 01:23:19;;;;;;;5.10;1.92;;;16.60;69.60;;;;;;5013221;28;20873;-76
2022/09/16 01:26:03;;;;;;;4.20;1.70;;;16.60;69.60;;;;;;5024982;28;20025;-77
2022/09/16 01:28:58;;;;;;;5.80;1.90;;;16.60;69.80;;;;;;5037051;28;20029;-77
2022/09/16 01:31:40;;;;;;;2.30;1.50;;;16.50;69.80;;;;;;5003739;28;20125;-76
2022/09/16 01:34:24;;;;;;;4.07;1.77;;;16.50;69.70;;;;;;5001298;28;20420;-77
2022/09/16 01:37:02;;;;;;;4.22;1.92;;;16.50;69.60;;;;;;4999528;28;20022;-76
2022/09/16 01:39:47;;;;;;;4.38;1.83;;;16.50;69.50;;;;;;5016769;28;20393;-77
2022/09/16 01:42:52;;;;;;;5.85;1.80;;;16.40;69.90;;;;;;4998622;28;20046;-75
2022/09/16 01:45:32;;;;;;;6.63;2.10;;;16.50;69.90;;;;;;4994293;28;20487;-77
2022/09/16 01:48:07;;;;;;;;;;;16.40;70.00;;;;;;4997970;28;20839;-76
2022/09/16 01:50:46;;;;;;;5.03;1.83;;;16.40;69.30;;;;;;4997019;28;20349;-77
2022/09/16 01:53:24;;;;;;;6.35;2.10;;;16.50;68.90;;;;;;4997497;28;20471;-76
2022/09/16 01:55:59;;;;;;;3.58;1.73;;;16.40;68.90;;;;;;5000587;28;20037;-77
2022/09/16 01:59:11;;;;;;;6.28;1.80;;;16.30;69.00;;;;;;5016388;28;20108;-76
2022/09/16 02:02:05;;;;;;;4.72;1.75;;;16.20;69.90;;;;;;4993573;28;20137;-77
2022/09/16 02:04:55;;;;;;;7.38;2.13;;;16.20;70.00;;;;;;4990962;28;20034;-76
2022/09/16 02:07:26;;;;;;;4.72;1.90;;;16.20;70.00;;;;;;4991444;28;20046;-76
2022/09/16 02:09:57;;;;;;;6.93;2.45;;;16.20;70.30;;;;;;4989352;28;20042;-77
2022/09/16 02:12:33;;;;;;;2.75;1.98;;;16.10;70.20;;;;;;4996626;28;20033;-77
2022/09/16 02:15:04;;;;;;;4.65;2.03;;;16.10;70.20;;;;;;4996467;28;20030;-77
2022/09/16 02:17:33;;;;;;;4.18;1.98;;;16.10;70.20;;;;;;4996297;28;20089;-77
2022/09/16 02:20:07;;;;;;;7.28;2.25;;;16.10;70.30;;;;;;4996406;28;20026;-77
2022/09/16 02:22:42;;;;;;;5.10;1.98;;;16.10;70.00;;;;;;4996528;28;20524;-77
2022/09/16 02:25:09;;;;;;;6.80;2.13;;;16.10;69.70;;;;;;4996313;28;20105;-77
2022/09/16 02:27:38;;;;;;;3.17;2.13;;;16.10;69.90;;;;;;5012114;28;20042;-77
2022/09/16 02:30:10;;;;;;;9.13;2.70;;;16.00;69.70;;;;;;4996311;28;20030;-77
2022/09/16 02:32:47;;;;;;;7.57;2.22;;;16.00;69.90;;;;;;4994910;28;20623;-77
2022/09/16 02:35:16;;;;;;;5.47;2.13;;;16.00;70.10;;;;;;4998347;28;20389;-77
2022/09/16 02:38:07;;;;;;;4.97;2.20;;;16.00;69.90;;;;;;5015657;28;20041;-77
2022/09/16 02:40:56;;;;;;;4.38;2.10;;;15.90;70.20;;;;;;4967809;28;20057;-77
2022/09/16 02:43:24;;;;;;;6.13;2.17;;;15.90;70.70;;;;;;5011215;28;20410;-77
2022/09/16 02:46:25;;;;;;;3.25;2.00;;;15.90;71.10;;;;;;4978874;28;20061;-77
2022/09/16 02:49:28;;;;;;;5.80;2.50;;;15.90;71.40;;;;;;4965348;28;20048;-77
2022/09/16 02:52:13;;;;;;;6.28;2.40;;;15.90;71.40;;;;;;5015783;28;20042;-77
2022/09/16 02:54:50;;;;;;;3.42;1.92;;;15.90;71.60;;;;;;4995888;28;20026;-77
2022/09/16 02:57:16;;;;;;;5.45;2.10;;;16.00;71.60;;;;;;5011711;28;20037;-77
2022/09/16 02:59:42;;;;;;;7.03;1.92;;;16.00;71.90;;;;;;4996040;28;20034;-77
2022/09/16 03:02:08;;;;;;;4.60;2.20;;;16.00;72.00;;;;;;4995975;28;20026;-77
2022/09/16 03:04:34;;;;;;;4.28;2.47;;;16.00;72.20;;;;;;4996543;28;20064;-77
2022/09/16 03:06:59;;;;;;;4.10;2.30;;;16.10;71.90;;;;;;4998207;28;20030;-77
2022/09/16 03:09:28;;;;;;;6.07;2.47;;;16.10;72.10;;;;;;4997915;28;20704;-77
2022/09/16 03:12:22;;;;;;;3.08;2.00;;;16.10;72.50;;;;;;5007201;28;20042;-77
2022/09/16 03:15:07;;;;;;;8.70;2.58;;;16.20;72.30;;;;;;4995739;28;20026;-77
2022/09/16 03:17:54;;;;;;;4.78;2.13;;;16.20;72.20;;;;;;4995747;28;20031;-77
2022/09/16 03:20:35;;;;;;;8.98;2.28;;;16.20;72.20;;;;;;4995895;28;20041;-77
2022/09/16 03:23:22;;;;;;;2.97;2.08;;;16.30;71.70;;;;;;4996284;28;20027;-77
2022/09/16 03:26:24;;;;;;;8.93;2.42;;;16.30;72.10;;;;;;4998534;28;20109;-77
2022/09/16 03:29:16;;;;;;;4.40;1.65;;;16.30;71.70;;;;;;4978294;28;20052;-77
2022/09/16 03:31:54;;;;;;;5.15;2.08;;;16.40;72.10;;;;;;5014646;28;20081;-77
2022/09/16 03:34:21;;;;;;;5.90;2.17;;;16.40;71.80;;;;;;5005447;28;20101;-77
2022/09/16 03:36:53;;;;;;;4.80;2.15;;;16.40;71.90;;;;;;5019260;28;20030;-77
2022/09/16 03:39:21;;;;;;;5.18;2.17;;;16.40;71.80;;;;;;4999225;28;20037;-77
2022/09/16 03:41:54;;;;;;;2.88;1.98;;;16.40;70.90;;;;;;5006019;28;20022;-77
2022/09/16 03:44:20;;;;;;;4.20;2.28;;;16.50;71.10;;;;;;4986288;28;20058;-77
2022/09/16 03:46:45;;;;;;;4.95;2.30;;;16.50;71.40;;;;;;4980010;28;20026;-77
2022/09/16 03:49:12;;;;;;;4.60;1.90;;;16.50;71.10;;;;;;4978256;28;20085;-77
2022/09/16 03:51:37;;;;;;;5.20;2.13;;;16.50;71.00;;;;;;4990943;28;20441;-77
2022/09/16 03:54:03;;;;;;;3.03;2.20;;;16.50;71.50;;;;;;4979836;28;20101;-77
2022/09/16 03:56:29;;;;;;;6.03;2.13;;;16.50;71.70;;;;;;4994672;28;20454;-77
2022/09/16 03:58:58;;;;;;;5.10;2.50;;;16.50;72.00;;;;;;4979821;28;20035;-77
2022/09/16 04:01:24;;;;;;;6.88;2.60;;;16.50;71.80;;;;;;4979876;28;20029;-77
2022/09/16 04:03:51;;;;;;;6.68;2.47;;;16.50;71.50;;;;;;4994949;28;20565;-78
2022/09/16 04:06:17;;;;;;;7.13;3.17;;;16.50;71.30;;;;;;4980056;28;20099;-78
2022/09/16 04:08:43;;;;;;;5.32;1.90;;;16.50;71.50;;;;;;4993935;28;20498;-77
2022/09/16 04:11:09;;;;;;;5.85;2.25;;;16.50;71.60;;;;;;4994688;28;20057;-77
2022/09/16 04:13:35;;;;;;;2.97;1.90;;;16.50;71.50;;;;;;4979292;28;20429;-77
2022/09/16 04:16:04;;;;;;;5.68;2.45;;;16.50;71.50;;;;;;4979361;28;20098;-77
2022/09/16 04:18:30;;;;;;;4.93;2.28;;;16.50;71.10;;;;;;4994633;28;20030;-77
2022/09/16 04:20:58;;;;;;;4.30;2.00;;;16.50;71.00;;;;;;4979355;28;20117;-77
2022/09/16 04:23:25;;;;;;;4.85;2.13;;;16.50;70.80;;;;;;4979771;28;20038;-77
2022/09/16 04:25:58;;;;;;;6.53;1.85;;;16.50;70.90;;;;;;4998337;28;20026;-77
2022/09/16 04:28:25;;;;;;;4.63;2.00;;;16.60;70.80;;;;;;4997252;28;20030;-77
2022/09/16 04:30:51;;;;;;;3.15;1.70;;;16.60;70.70;;;;;;4982383;28;20089;-77
2022/09/16 04:33:16;;;;;;;4.63;1.92;;;16.50;70.90;;;;;;4994187;28;20030;-77
2022/09/16 04:35:42;;;;;;;3.00;2.20;;;16.60;70.80;;;;;;4990568;28;20035;-78
2022/09/16 04:38:08;;;;;;;4.97;1.55;;;16.60;70.80;;;;;;4978404;28;20538;-78
2022/09/16 04:40:34;;;;;;;3.95;2.00;;;16.50;70.80;;;;;;4979479;28;20030;-77
2022/09/16 04:42:59;;;;;;;3.17;2.15;;;16.60;70.80;;;;;;4997559;28;20066;-77
2022/09/16 04:45:25;;;;;;;5.55;2.00;;;16.60;70.90;;;;;;5017119;28;20025;-73
2022/09/16 04:47:57;;;;;;;5.78;2.22;;;16.50;70.60;;;;;;4990797;28;20081;-72
2022/09/16 04:50:23;;;;;;;2.10;1.83;;;16.60;70.70;;;;;;4980468;28;20088;-73
2022/09/16 04:52:50;;;;;;;6.25;2.15;;;16.60;70.70;;;;;;5001734;28;20058;-74
2022/09/16 04:55:25;;;;;;;2.10;1.65;;;16.60;70.70;;;;;;4998133;28;20018;-74
2022/09/16 04:57:51;;;;;;;5.60;2.03;;;16.60;70.90;;;;;;4997825;28;20026;-74
2022/09/16 05:00:17;;;;;;;7.60;2.47;;;16.60;70.60;;;;;;4998196;28;20041;-74
2022/09/16 05:02:46;;;;;;;3.13;1.88;;;16.60;70.40;;;;;;5018346;28;20068;-74
2022/09/16 05:05:12;;;;;;;2.83;1.80;;;16.60;70.60;;;;;;5014586;28;20033;-75
2022/09/16 05:07:38;;;;;;;6.85;2.40;;;16.60;70.70;;;;;;5029252;28;20079;-74
2022/09/16 05:10:04;;;;;;;4.60;2.38;;;16.60;70.60;;;;;;5014693;28;20030;-73
2022/09/16 05:12:34;;;;;;;5.88;2.35;;;16.60;70.80;;;;;;5008658;28;20398;-74
2022/09/16 05:14:59;;;;;;;4.13;2.00;;;16.60;70.70;;;;;;5016636;28;20032;-74
2022/09/16 05:17:27;;;;;;;4.05;1.95;;;16.50;70.70;;;;;;5015981;28;20033;-74
2022/09/16 05:19:53;;;;;;;5.45;1.60;;;16.60;70.50;;;;;;5012915;28;20053;-75
2022/09/16 05:22:19;;;;;;;4.68;2.05;;;16.60;70.50;;;;;;4994772;28;20042;-74
2022/09/16 05:24:45;;;;;;;3.72;2.05;;;16.60;70.30;;;;;;5015916;28;20021;-75
2022/09/16 05:27:10;;;;;;;4.95;1.73;;;16.70;70.10;;;;;;4998751;28;20030;-74
2022/09/16 05:29:36;;;;;;;6.93;2.08;;;16.60;69.90;;;;;;4995585;28;20034;-74
2022/09/16 05:32:02;;;;;;;4.43;1.67;;;16.60;69.90;;;;;;4996464;28;20034;-74
2022/09/16 05:34:27;;;;;;;6.07;2.28;;;16.60;70.00;;;;;;5003410;28;20472;-74
2022/09/16 05:36:54;;;;;;;2.42;1.95;;;16.60;69.80;;;;;;5014941;28;20030;-74
2022/09/16 05:39:21;;;;;;;4.75;1.98;;;16.60;69.60;;;;;;5016419;28;20067;-74
2022/09/16 05:41:47;;;;;;;5.40;2.08;;;16.70;69.60;;;;;;5004620;28;20047;-74
2022/09/16 05:44:14;;;;;;;2.95;2.22;;;16.60;69.50;;;;;;5015606;28;20517;-74
2022/09/16 05:46:42;;;;;;;9.05;2.10;;;16.60;69.40;;;;;;5016740;28;20183;-74
2022/09/16 05:49:08;;;;;;;4.75;2.00;;;16.60;69.50;;;;;;5000353;28;20117;-74
2022/09/16 05:51:36;;;;;;;3.47;1.70;;;16.60;69.30;;;;;;4997264;28;20037;-73
2022/09/16 05:54:02;;;;;;;4.40;2.20;;;16.60;69.30;;;;;;4995967;28;20525;-74
2022/09/16 05:56:30;;;;;;;5.80;1.80;;;16.60;69.20;;;;;;4997250;28;20077;-75
2022/09/16 05:58:59;;;;;;;3.28;1.60;;;16.60;69.20;;;;;;4995708;28;20062;-75
2022/09/16 06:01:36;;;;;;;2.90;1.42;;;16.60;69.00;;;;;;4991605;28;20037;-74
2022/09/16 06:04:04;;;;;;;3.00;1.80;;;16.60;69.10;;;;;;5013891;28;20416;-74
2022/09/16 06:06:37;;;;;;;2.85;1.55;;;16.60;68.60;;;;;;5012645;28;20544;-75
2022/09/16 06:09:12;;;;;;;4.68;1.55;;;16.60;68.30;;;;;;4997525;28;20056;-79
2022/09/16 06:11:41;;;;;;;4.45;1.60;;;16.60;68.10;;;;;;5012237;28;20025;-75
2022/09/16 06:14:07;;;;;;;4.28;1.30;;;16.60;67.80;;;;;;5007938;28;20019;-74
2022/09/16 06:16:34;;;;;;;4.57;1.10;;;16.70;67.50;;;;;;4995600;28;20157;-75
2022/09/16 06:19:02;;;;;;;1.98;1.30;;;16.70;67.50;;;;;;4997164;28;20101;-75
2022/09/16 06:21:28;;;;;;;4.88;1.52;;;16.70;67.40;;;;;;5012045;28;20054;-75
2022/09/16 06:24:14;;;;;;;1.70;1.10;;;16.70;67.40;;;;;;4997562;28;20040;-75
2022/09/16 06:26:42;;;;;;;3.17;1.40;;;16.70;67.40;;;;;;4996656;28;20034;-74
2022/09/16 06:29:08;;;;;;;4.47;1.35;;;16.80;67.30;;;;;;4995198;28;20034;-75
2022/09/16 06:31:35;;;;;;;3.10;1.02;;;16.80;67.10;;;;;;4996393;28;20034;-75
2022/09/16 06:34:01;;;;;;;4.30;1.30;;;16.80;66.90;;;;;;4998220;28;20426;-74
2022/09/16 06:36:29;;;;;;;3.38;1.23;;;16.80;66.80;;;;;;5015635;28;20591;-75
2022/09/16 06:38:55;;;;;;;5.07;1.17;;;16.80;66.80;;;;;;5003197;28;20024;-75
2022/09/16 06:41:21;;;;;;;4.28;1.10;;;16.80;66.70;;;;;;5015547;28;20029;-75
2022/09/16 06:43:50;;;;;;;3.95;0.93;;;16.80;66.80;;;;;;5014356;28;20513;-75
2022/09/16 06:46:26;;;;;;;4.28;1.05;;;16.80;66.40;;;;;;4998919;28;20032;-74
2022/09/16 06:48:56;;;;;;;3.63;1.23;;;16.80;66.30;;;;;;5011805;28;20468;-75
2022/09/16 06:51:27;;;;;;;1.45;0.80;;;16.80;65.80;;;;;;5015737;28;20433;-74
2022/09/16 06:53:57;;;;;;;2.33;1.02;;;16.90;65.90;;;;;;4998458;28;20053;-74
2022/09/16 06:56:23;;;;;;;3.72;1.10;;;16.80;65.70;;;;;;5009669;28;20041;-74
2022/09/16 06:58:52;;;;;;;2.78;0.80;;;16.90;65.70;;;;;;4998113;28;20522;-74
2022/09/16 07:01:22;;;;;;;1.63;0.90;;;16.90;65.40;;;;;;5015444;28;20103;-75
2022/09/16 07:03:50;;;;;;;3.05;0.88;;;16.90;65.20;;;;;;4997293;28;20026;-74
2022/09/16 07:06:18;;;;;;;2.90;0.88;;;16.90;64.90;;;;;;4994789;28;20034;-75
2022/09/16 07:08:44;;;;;;;3.92;1.05;;;16.80;64.70;;;;;;4996226;28;20034;-74
2022/09/16 07:11:18;;;;;;;5.30;1.20;;;16.80;64.90;;;;;;5002797;28;20517;-74
2022/09/16 07:13:48;;;;;;;4.22;0.90;;;16.80;65.50;;;;;;5014723;28;20041;-75
2022/09/16 07:16:20;;;;;;;2.97;0.98;;;16.90;65.90;;;;;;5011571;28;20026;-75
2022/09/16 07:18:47;;;;;;;3.05;1.00;;;16.90;65.70;;;;;;4997897;28;20065;-74
2022/09/16 07:21:17;;;;;;;1.42;0.75;;;17.00;65.80;;;;;;4995031;28;20041;-75
2022/09/16 07:23:43;;;;;;;;;;;17.00;65.40;;;;;;5011739;28;20112;-75
2022/09/16 07:26:12;;;;;;;1.92;1.13;;;17.00;65.20;;;;;;4991380;28;20388;-74
2022/09/16 07:28:39;;;;;;;2.15;0.95;;;17.00;65.20;;;;;;4996159;28;20160;-75
2022/09/16 07:31:10;;;;;;;2.22;0.93;;;17.10;65.10;;;;;;5004125;28;20041;-74
2022/09/16 07:33:38;;;;;;;3.58;1.00;;;17.10;64.90;;;;;;4998209;28;20022;-74
2022/09/16 07:36:05;;;;;;;2.28;0.80;;;17.10;65.00;;;;;;5030476;28;20026;-75
2022/09/16 07:38:32;;;;;;;4.95;1.10;;;17.10;64.90;;;;;;5009881;28;20062;-75
2022/09/16 07:41:18;;;;;;;3.75;0.90;;;17.10;64.90;;;;;;5014346;28;20482;-75
2022/09/16 07:43:45;;;;;;;2.63;0.75;;;17.10;65.00;;;;;;5011320;28;20057;-75
2022/09/16 07:46:12;;;;;;;2.25;0.90;;;17.10;64.70;;;;;;5015043;28;20458;-75
2022/09/16 07:48:38;;;;;;;1.65;0.85;;;17.10;64.90;;;;;;5012752;28;20885;-74
2022/09/16 07:51:09;;;;;;;2.15;0.80;;;17.10;64.80;;;;;;5010766;28;20050;-74
2022/09/16 07:53:36;;;;;;;3.13;0.90;;;17.10;64.50;;;;;;4994542;28;20081;-74
2022/09/16 07:56:08;;;;;;;1.73;1.05;;;17.10;64.50;;;;;;4995770;28;20030;-74
2022/09/16 07:58:34;;;;;;;2.85;0.70;;;17.10;64.10;;;;;;4996075;28;20041;-75
2022/09/16 08:01:01;;;;;;;2.08;0.90;;;17.00;63.80;;;;;;4999103;28;20113;-75
2022/09/16 08:03:27;;;;;;;2.75;0.80;;;17.10;64.10;;;;;;5011008;28;20030;-75
2022/09/16 08:05:59;;;;;;;3.45;0.82;;;17.10;64.30;;;;;;5015006;28;20393;-74
2022/09/16 08:08:25;;;;;;;4.10;0.93;;;17.10;64.10;;;;;;5001006;28;20026;-75
2022/09/16 08:10:58;;;;;;;3.17;0.90;;;17.10;64.20;;;;;;5001843;28;20064;-75
2022/09/16 08:13:24;;;;;;;4.20;1.42;;;17.10;64.00;;;;;;5008199;28;20029;-74
2022/09/16 08:15:51;;;;;;;3.65;0.75;;;17.10;64.20;;;;;;5012254;28;20038;-75
2022/09/16 08:18:17;;;;;;;1.70;1.10;;;17.10;63.90;;;;;;5017010;28;20026;-74
2022/09/16 08:20:42;;;;;;;2.08;0.80;;;17.20;63.80;;;;;;5033574;28;20040;-75
2022/09/16 08:23:08;;;;;;;2.38;0.82;;;17.20;63.70;;;;;;4999500;28;20034;-75
2022/09/16 08:25:35;;;;;;;2.92;1.00;;;17.10;63.50;;;;;;5013822;28;20034;-74
2022/09/16 08:28:01;;;;;;;2.40;0.80;;;17.20;63.60;;;;;;4997569;28;20026;-75
2022/09/16 08:30:27;;;;;;;3.83;0.82;;;17.20;63.90;;;;;;4999276;28;20040;-75
2022/09/16 08:32:59;;;;;;;3.78;0.90;;;17.20;63.80;;;;;;5006602;28;20018;-74
2022/09/16 08:35:25;;;;;;;3.53;0.90;;;17.30;63.10;;;;;;5015507;28;20030;-75
2022/09/16 08:37:51;;;;;;;2.80;0.70;;;17.30;63.00;;;;;;4998893;28;20033;-74
2022/09/16 08:40:22;;;;;;;2.15;0.73;;;17.50;63.50;;;;;;5012254;28;20558;-75
2022/09/16 08:42:54;;;;;;;1.52;0.52;;;17.50;63.00;;;;;;4998489;28;20054;-74
2022/09/16 08:45:34;;;;;;;1.90;0.80;;;17.70;62.80;;;;;;4996650;28;20057;-75
2022/09/16 08:48:34;;;;;;;2.25;0.85;;;17.70;61.70;;;;;;4997303;28;20398;-75
2022/09/16 08:51:01;;;;;;;;;;;17.80;61.20;;;;;;5014720;28;20053;-75
2022/09/16 08:54:02;;;;;;;1.85;0.75;;;17.80;61.00;;;;;;4998416;28;19916;-75
2022/09/16 08:56:33;;;;;;;4.22;0.70;;;18.00;60.50;;;;;;5022651;28;20014;-74
2022/09/16 08:59:00;;;;;;;1.05;0.57;;;18.20;60.20;;;;;;4998989;28;20121;-75
2022/09/16 09:01:49;;;;;;;3.85;1.17;;;18.50;59.70;;;;;;4996688;28;20026;-75
2022/09/16 09:04:14;;;;;;;2.70;0.90;;;19.00;58.00;;;;;;5013870;28;20177;-75
2022/09/16 09:06:43;;;;;;;2.88;0.88;;;19.80;56.10;;;;;;5028350;28;20105;-75
2022/09/16 09:09:34;;;;;;;2.45;0.82;;;20.70;53.60;;;;;;5000188;28;20489;-75
2022/09/16 09:12:03;;;;;;;3.28;0.80;;;21.80;50.20;;;;;;4993249;28;20406;-75
2022/09/16 09:15:10;;;;;;;2.80;0.63;;;22.50;48.00;;;;;;5012545;28;20030;-75
2022/09/16 09:18:00;;;;;;;1.75;0.50;;;22.70;47.20;;;;;;4973924;28;20034;-75
2022/09/16 09:20:51;;;;;;;3.75;0.65;;;22.30;48.10;;;;;;5013253;28;20030;-75
2022/09/16 09:23:35;;;;;;;2.42;0.43;;;21.30;49.10;;;;;;5012238;28;20065;-76
2022/09/16 09:26:15;;;;;;;3.97;1.00;;;20.80;51.70;;;;;;5029982;28;20030;-75
2022/09/16 09:29:23;;;;;;;3.40;0.63;;;20.40;51.80;;;;;;5008126;28;20030;-75
2022/09/16 09:32:16;;;;;;;1.58;0.40;;;20.20;52.30;;;;;;5012480;28;20037;-75
2022/09/16 09:35:26;;;;;;;2.30;0.52;;;20.20;53.20;;;;;;5031105;28;20025;-75
2022/09/16 09:38:16;;;;;;;1.40;0.60;;;20.00;52.70;;;;;;4989758;28;20518;-75
2022/09/16 09:40:53;;;;;;;4.60;0.82;;;20.00;54.20;;;;;;4997555;28;20077;-76
2022/09/16 09:43:30;;;;;;;4.13;0.82;;;20.20;54.00;;;;;;4996201;28;20065;-75
2022/09/16 09:45:59;;;;;;;1.15;0.70;;;20.10;51.20;;;;;;5012708;28;20034;-78
2022/09/16 09:48:34;;;;;;;1.83;0.40;;;19.90;49.60;;;;;;4997890;28;20510;-75
2022/09/16 09:51:09;;;;;;;2.20;0.50;;;19.90;48.20;;;;;;5005133;28;20034;-75
2022/09/16 09:53:52;;;;;;;1.52;0.40;;;20.10;48.70;;;;;;5015354;28;20030;-75
2022/09/16 09:56:21;;;;;;;4.13;0.90;;;20.20;49.20;;;;;;5015294;28;20033;-76
2022/09/16 09:58:58;;;;;;;1.42;0.40;;;20.10;49.90;;;;;;4998626;28;20132;-75
2022/09/16 10:01:23;;;;;;;2.47;0.50;;;20.00;49.80;;;;;;5016356;28;20025;-75
2022/09/16 10:03:53;;;;;;;4.50;0.40;;;19.90;49.10;;;;;;5012609;28;20125;-76
2022/09/16 10:06:25;;;;;;;5.78;0.70;;;19.80;49.60;;;;;;5030682;28;20048;-81
2022/09/16 10:08:54;;;;;;;0.70;0.30;;;19.60;50.00;;;;;;5031685;28;20042;-79
2022/09/16 10:11:23;;;;;;;1.65;0.40;;;19.50;49.50;;;;;;5011558;28;20034;-78
2022/09/16 10:13:59;;;;;;;0.85;0.40;;;19.50;49.60;;;;;;5016416;28;20037;-77
2022/09/16 10:16:36;;;;;;;1.25;0.45;;;19.60;49.10;;;;;;5016349;28;20026;-76
2022/09/16 10:19:04;;;;;;;2.78;0.77;;;19.50;48.90;;;;;;4995068;28;20046;-77
2022/09/16 10:21:44;;;;;;;3.80;0.70;;;19.70;49.50;;;;;;4999181;28;20029;-77
2022/09/16 10:24:28;;;;;;;3.90;0.70;;;19.90;49.70;;;;;;4996848;28;20036;-76
2022/09/16 10:26:55;;;;;;;1.63;0.60;;;20.00;48.90;;;;;;4999189;28;20029;-76
2022/09/16 10:29:21;;;;;;;1.90;0.75;;;20.10;49.10;;;;;;4998721;28;20065;-77
2022/09/16 10:31:47;;;;;;;1.10;0.60;;;20.30;48.50;;;;;;5015862;28;20026;-75
2022/09/16 10:34:22;;;;;;;1.58;0.80;;;20.30;48.20;;;;;;5005121;28;20076;-76
2022/09/16 10:37:13;;;;;;;1.40;0.45;;;20.20;46.60;;;;;;5016134;28;20022;-75
2022/09/16 10:39:51;;;;;;;1.90;0.50;;;20.00;45.90;;;;;;5004323;28;20061;-77
2022/09/16 10:42:26;;;;;;;1.50;0.50;;;19.90;47.50;;;;;;4995359;28;20061;-76
2022/09/16 10:44:58;;;;;;;3.08;0.50;;;20.00;48.30;;;;;;4996497;28;20074;-77
2022/09/16 10:47:30;;;;;;;3.20;0.50;;;19.90;46.70;;;;;;4998951;28;20034;-79
2022/09/16 10:50:03;;;;;;;2.78;0.63;;;20.00;47.00;;;;;;5026193;28;20037;-78
2022/09/16 10:52:31;;;;;;;3.72;0.70;;;20.00;47.50;;;;;;5016069;28;20022;-78
2022/09/16 10:55:20;;;;;;;1.88;0.60;;;20.10;46.60;;;;;;5014257;28;20455;-78
2022/09/16 10:57:46;;;;;;;1.98;0.77;;;20.30;46.70;;;;;;5013207;28;20099;-78
2022/09/16 11:00:20;;;;;;;2.40;0.95;;;20.40;45.60;;;;;;5013000;28;20509;-79
2022/09/16 11:03:04;;;;;;;1.70;0.60;;;20.50;46.20;;;;;;4989504;28;20777;-78
2022/09/16 11:06:11;;;;;;;1.30;0.57;;;20.40;46.80;;;;;;5014835;28;20397;-78
2022/09/16 11:08:51;;;;;;;1.55;0.57;;;20.30;47.70;;;;;;5010397;28;20033;-78
2022/09/16 11:11:36;;;;;;;3.55;0.68;;;20.30;46.40;;;;;;5007807;28;20088;-79
2022/09/16 11:14:24;;;;;;;0.93;0.40;;;20.30;46.60;;;;;;5012200;28;20060;-77
2022/09/16 11:17:02;;;;;;;3.72;1.00;;;20.30;46.30;;;;;;4995974;28;20064;-77
2022/09/16 11:20:12;;;;;;;1.45;0.60;;;20.40;45.10;;;;;;5014949;28;20513;-75
2022/09/16 11:22:45;;;;;;;0.63;0.40;;;20.40;44.40;;;;;;4978384;28;20502;-78
2022/09/16 11:25:36;;;;;;;1.08;0.43;;;20.50;45.30;;;;;;5028022;28;20034;-78
2022/09/16 11:28:20;;;;;;;2.70;0.50;;;20.70;45.80;;;;;;5017384;28;20025;-78
2022/09/16 11:31:27;;;;;;;0.77;0.30;;;20.80;44.10;;;;;;5006352;28;20034;-78
2022/09/16 11:34:15;;;;;;;1.17;0.50;;;20.90;43.80;;;;;;5014738;28;20037;-78
2022/09/16 11:36:59;;;;;;;2.05;0.50;;;21.00;43.30;;;;;;5002052;28;20109;-79
2022/09/16 11:39:50;;;;;;;1.52;0.60;;;20.90;44.20;;;;;;4995603;28;20478;-78
2022/09/16 11:42:29;;;;;;;2.75;0.70;;;20.90;43.90;;;;;;4995257;28;20061;-79
2022/09/16 11:45:17;;;;;;;2.03;1.17;;;20.90;44.70;;;;;;5010784;28;20121;-78
2022/09/16 11:47:58;;;;;;;1.65;0.60;;;20.80;43.10;;;;;;4994749;28;20045;-79
2022/09/16 11:50:47;;;;;;;1.65;0.70;;;20.80;44.40;;;;;;5000108;28;20037;-78
2022/09/16 11:53:27;;;;;;;1.73;0.47;;;21.00;45.00;;;;;;5008777;28;20042;-78
2022/09/16 11:56:02;;;;;;;1.08;0.30;;;21.00;44.30;;;;;;5015288;28;20048;-78
2022/09/16 11:58:33;;;;;;;1.23;0.57;;;21.10;43.60;;;;;;5018520;28;20022;-78
2022/09/16 12:01:14;;;;;;;1.38;0.60;;;21.00;43.70;;;;;;5019079;28;20036;-79
2022/09/16 12:03:44;;;;;;;2.17;0.45;;;21.00;43.90;;;;;;5017247;28;20395;-78
2022/09/16 12:06:16;;;;;;;5.88;0.88;;;21.00;43.00;;;;;;5017793;28;20354;-78
2022/09/16 12:08:56;;;;;;;8.00;0.90;;;21.00;42.90;;;;;;5004674;28;20118;-78
2022/09/16 12:11:49;;;;;;;2.05;0.52;;;21.10;43.50;;;;;;5018780;28;20079;-78
2022/09/16 12:14:32;;;;;;;3.55;0.60;;;21.10;43.00;;;;;;5015342;28;20031;-78
2022/09/16 12:17:07;;;;;;;1.98;0.40;;;21.30;43.00;;;;;;5012635;28;20018;-78
2022/09/16 12:19:46;;;;;;;3.50;0.88;;;21.50;42.60;;;;;;5013596;28;20026;-78
2022/09/16 12:22:17;;;;;;;;;;;21.60;42.60;;;;;;5002944;28;20022;-78
2022/09/16 12:25:01;;;;;;;0.85;0.38;;;21.60;42.70;;;;;;5017944;28;19910;-78
2022/09/16 12:27:55;;;;;;;2.22;0.70;;;21.60;43.20;;;;;;5004959;28;20033;-78
2022/09/16 12:30:26;;;;;;;1.17;0.47;;;21.40;42.80;;;;;;5018111;28;20034;-78
2022/09/16 12:33:26;;;;;;;2.40;0.65;;;21.20;42.20;;;;;;5005529;28;20031;-78
2022/09/16 12:36:04;;;;;;;1.90;0.50;;;21.30;43.00;;;;;;5017008;28;20025;-78
2022/09/16 12:38:30;;;;;;;2.03;0.60;;;21.60;43.90;;;;;;5018167;28;20025;-78
2022/09/16 12:41:17;;;;;;;3.00;1.13;;;21.70;44.70;;;;;;5011028;28;20505;-77
2022/09/16 12:44:18;;;;;;;2.78;0.77;;;21.70;43.40;;;;;;5018043;28;20062;-78
2022/09/16 12:47:11;;;;;;;1.92;0.40;;;21.70;41.90;;;;;;4976884;28;20038;-78
2022/09/16 12:50:10;;;;;;;2.13;0.40;;;21.70;42.00;;;;;;5016540;28;20033;-78
2022/09/16 12:53:24;;;;;;;1.23;0.50;;;21.90;41.60;;;;;;5033281;28;20032;-78
2022/09/16 12:56:30;;;;;;;1.95;0.70;;;22.10;42.30;;;;;;5016368;28;20261;-78
2022/09/16 12:59:04;;;;;;;1.50;0.60;;;22.00;43.10;;;;;;5016506;28;20026;-77
2022/09/16 13:01:43;;;;;;;3.58;0.65;;;21.80;42.30;;;;;;5016258;28;20071;-78
2022/09/16 13:04:32;;;;;;;1.00;0.30;;;21.80;42.60;;;;;;5017563;28;20494;-78
2022/09/16 13:06:59;;;;;;;2.25;0.75;;;21.80;41.90;;;;;;4996870;28;20038;-78
2022/09/16 13:09:27;;;;;;;2.17;0.52;;;21.80;42.70;;;;;;5003980;28;20106;-78
2022/09/16 13:12:04;;;;;;;1.70;0.50;;;21.60;42.80;;;;;;5015548;28;20029;-78
2022/09/16 13:14:44;;;;;;;1.27;0.50;;;21.40;43.50;;;;;;5016798;28;20022;-78
2022/09/16 13:17:11;;;;;;;1.20;0.57;;;21.30;43.90;;;;;;5009764;28;20478;-78
2022/09/16 13:19:40;;;;;;;1.15;0.40;;;21.40;44.20;;;;;;5022301;28;20428;-78
2022/09/16 13:22:30;;;;;;;1.47;0.40;;;21.50;44.30;;;;;;5017345;28;20448;-78
2022/09/16 13:25:11;;;;;;;2.15;0.50;;;21.60;43.70;;;;;;4996839;28;20052;-78